sensor_id;sensor_type;location;lat;lon;timestamp;P1;durP1;ratioP1;P2;durP2;ratioP2
72649;SDS011;61467;50.674;4.618;2022-08-01T00:00:42;3.70;;;1.20;;
72649;SDS011;61467;50.674;4.618;2022-08-01T00:03:08;3.50;;;0.90;;
72649;SDS011;61467;50.674;4.618;2022-08-01T00:05:35;4.97;;;1.20;;
72649;SDS011;61467;50.674;4.618;2022-08-01T00:08:03;4.20;;;1.27;;
72649;SDS011;61467;50.674;4.618;2022-08-01T00:10:30;4.78;;;1.13;;
72649;SDS011;61467;50.674;4.618;2022-08-01T00:12:57;5.63;;;1.23;;
72649;SDS011;61467;50.674;4.618;2022-08-01T00:15:23;4.72;;;1.40;;
72649;SDS011;61467;50.674;4.618;2022-08-01T00:17:50;5.22;;;1.45;;
72649;SDS011;61467;50.674;4.618;2022-08-01T00:20:17;5.38;;;1.33;;
72649;SDS011;61467;50.674;4.618;2022-08-01T00:22:43;4.10;;;1.17;;
72649;SDS011;61467;50.674;4.618;2022-08-01T00:25:11;3.33;;;1.17;;
72649;SDS011;61467;50.674;4.618;2022-08-01T00:27:38;4.40;;;1.25;;
72649;SDS011;61467;50.674;4.618;2022-08-01T00:30:05;5.93;;;1.20;;
72649;SDS011;61467;50.674;4.618;2022-08-01T00:32:32;5.18;;;1.30;;
72649;SDS011;61467;50.674;4.618;2022-08-01T00:34:59;5.47;;;1.10;;
72649;SDS011;61467;50.674;4.618;2022-08-01T00:37:26;5.13;;;1.47;;
72649;SDS011;61467;50.674;4.618;2022-08-01T00:39:52;4.32;;;1.20;;
72649;SDS011;61467;50.674;4.618;2022-08-01T00:42:20;5.50;;;1.30;;
72649;SDS011;61467;50.674;4.618;2022-08-01T00:44:47;4.95;;;1.48;;
72649;SDS011;61467;50.674;4.618;2022-08-01T00:47:14;4.28;;;1.42;;
72649;SDS011;61467;50.674;4.618;2022-08-01T00:49:41;3.80;;;1.20;;
72649;SDS011;61467;50.674;4.618;2022-08-01T00:52:07;5.55;;;1.40;;
72649;SDS011;61467;50.674;4.618;2022-08-01T00:54:35;5.00;;;1.70;;
72649;SDS011;61467;50.674;4.618;2022-08-01T00:57:02;5.20;;;1.90;;
72649;SDS011;61467;50.674;4.618;2022-08-01T00:59:31;4.18;;;1.40;;
72649;SDS011;61467;50.674;4.618;2022-08-01T01:01:59;4.87;;;1.53;;
72649;SDS011;61467;50.674;4.618;2022-08-01T01:04:25;5.15;;;1.50;;
72649;SDS011;61467;50.674;4.618;2022-08-01T01:06:54;5.75;;;1.67;;
72649;SDS011;61467;50.674;4.618;2022-08-01T01:09:33;5.40;;;1.42;;
72649;SDS011;61467;50.674;4.618;2022-08-01T01:12:13;4.95;;;1.52;;
72649;SDS011;61467;50.674;4.618;2022-08-01T01:14:48;5.40;;;1.60;;
72649;SDS011;61467;50.674;4.618;2022-08-01T01:17:21;6.25;;;1.60;;
72649;SDS011;61467;50.674;4.618;2022-08-01T01:19:53;5.82;;;1.80;;
72649;SDS011;61467;50.674;4.618;2022-08-01T01:22:27;5.05;;;2.10;;
72649;SDS011;61467;50.674;4.618;2022-08-01T01:25:09;6.00;;;1.90;;
72649;SDS011;61467;50.674;4.618;2022-08-01T01:27:50;6.87;;;1.53;;
72649;SDS011;61467;50.674;4.618;2022-08-01T01:30:24;6.22;;;2.10;;
72649;SDS011;61467;50.674;4.618;2022-08-01T01:32:54;5.78;;;1.60;;
72649;SDS011;61467;50.674;4.618;2022-08-01T01:35:25;6.05;;;2.15;;
72649;SDS011;61467;50.674;4.618;2022-08-01T01:38:10;7.13;;;2.10;;
72649;SDS011;61467;50.674;4.618;2022-08-01T01:40:45;5.80;;;2.27;;
72649;SDS011;61467;50.674;4.618;2022-08-01T01:43:12;9.20;;;2.70;;
72649;SDS011;61467;50.674;4.618;2022-08-01T01:45:42;5.78;;;2.30;;
72649;SDS011;61467;50.674;4.618;2022-08-01T01:48:12;7.85;;;2.75;;
72649;SDS011;61467;50.674;4.618;2022-08-01T01:50:40;7.57;;;3.03;;
72649;SDS011;61467;50.674;4.618;2022-08-01T01:53:08;6.60;;;2.70;;
72649;SDS011;61467;50.674;4.618;2022-08-01T01:55:38;6.53;;;2.58;;
72649;SDS011;61467;50.674;4.618;2022-08-01T01:58:07;8.10;;;2.58;;
72649;SDS011;61467;50.674;4.618;2022-08-01T02:00:37;8.95;;;2.70;;
72649;SDS011;61467;50.674;4.618;2022-08-01T02:03:07;9.98;;;3.47;;
72649;SDS011;61467;50.674;4.618;2022-08-01T02:05:36;8.97;;;2.50;;
72649;SDS011;61467;50.674;4.618;2022-08-01T02:08:04;7.07;;;2.95;;
72649;SDS011;61467;50.674;4.618;2022-08-01T02:10:33;6.43;;;2.50;;
72649;SDS011;61467;50.674;4.618;2022-08-01T02:13:02;10.05;;;2.75;;
72649;SDS011;61467;50.674;4.618;2022-08-01T02:15:31;8.43;;;3.05;;
72649;SDS011;61467;50.674;4.618;2022-08-01T02:17:59;7.37;;;2.90;;
72649;SDS011;61467;50.674;4.618;2022-08-01T02:20:29;8.25;;;2.95;;
72649;SDS011;61467;50.674;4.618;2022-08-01T02:22:57;9.32;;;3.15;;
72649;SDS011;61467;50.674;4.618;2022-08-01T02:25:32;8.02;;;2.90;;
72649;SDS011;61467;50.674;4.618;2022-08-01T02:28:04;9.35;;;3.40;;
72649;SDS011;61467;50.674;4.618;2022-08-01T02:30:33;10.27;;;3.03;;
72649;SDS011;61467;50.674;4.618;2022-08-01T02:33:02;7.80;;;3.10;;
72649;SDS011;61467;50.674;4.618;2022-08-01T02:35:33;8.05;;;3.00;;
72649;SDS011;61467;50.674;4.618;2022-08-01T02:38:03;7.82;;;3.40;;
72649;SDS011;61467;50.674;4.618;2022-08-01T02:40:35;10.35;;;3.42;;
72649;SDS011;61467;50.674;4.618;2022-08-01T02:43:04;7.60;;;2.87;;
72649;SDS011;61467;50.674;4.618;2022-08-01T02:45:31;8.90;;;3.50;;
72649;SDS011;61467;50.674;4.618;2022-08-01T02:48:03;8.30;;;3.20;;
72649;SDS011;61467;50.674;4.618;2022-08-01T02:50:40;7.85;;;2.70;;
72649;SDS011;61467;50.674;4.618;2022-08-01T02:53:09;8.40;;;2.80;;
72649;SDS011;61467;50.674;4.618;2022-08-01T02:55:38;7.87;;;3.00;;
72649;SDS011;61467;50.674;4.618;2022-08-01T02:58:06;8.13;;;3.13;;
72649;SDS011;61467;50.674;4.618;2022-08-01T03:00:36;7.57;;;3.40;;
72649;SDS011;61467;50.674;4.618;2022-08-01T03:03:05;9.45;;;3.20;;
72649;SDS011;61467;50.674;4.618;2022-08-01T03:05:34;7.72;;;2.95;;
72649;SDS011;61467;50.674;4.618;2022-08-01T03:08:03;8.97;;;3.53;;
72649;SDS011;61467;50.674;4.618;2022-08-01T03:10:31;8.25;;;3.50;;
72649;SDS011;61467;50.674;4.618;2022-08-01T03:13:00;7.38;;;3.20;;
72649;SDS011;61467;50.674;4.618;2022-08-01T03:15:29;10.00;;;3.28;;
72649;SDS011;61467;50.674;4.618;2022-08-01T03:17:57;10.23;;;3.85;;
72649;SDS011;61467;50.674;4.618;2022-08-01T03:20:26;10.77;;;3.53;;
72649;SDS011;61467;50.674;4.618;2022-08-01T03:22:54;10.40;;;4.25;;
72649;SDS011;61467;50.674;4.618;2022-08-01T03:25:24;9.13;;;3.53;;
72649;SDS011;61467;50.674;4.618;2022-08-01T03:27:54;8.85;;;3.72;;
72649;SDS011;61467;50.674;4.618;2022-08-01T03:30:22;10.93;;;3.85;;
72649;SDS011;61467;50.674;4.618;2022-08-01T03:32:51;9.43;;;4.13;;
72649;SDS011;61467;50.674;4.618;2022-08-01T03:35:17;9.93;;;4.55;;
72649;SDS011;61467;50.674;4.618;2022-08-01T03:37:46;9.70;;;4.10;;
72649;SDS011;61467;50.674;4.618;2022-08-01T03:40:17;11.32;;;4.70;;
72649;SDS011;61467;50.674;4.618;2022-08-01T03:42:50;11.48;;;4.57;;
72649;SDS011;61467;50.674;4.618;2022-08-01T03:45:22;11.10;;;4.87;;
72649;SDS011;61467;50.674;4.618;2022-08-01T03:47:53;10.23;;;4.57;;
72649;SDS011;61467;50.674;4.618;2022-08-01T03:50:24;12.65;;;4.90;;
72649;SDS011;61467;50.674;4.618;2022-08-01T03:52:53;10.32;;;4.78;;
72649;SDS011;61467;50.674;4.618;2022-08-01T03:55:23;12.35;;;4.57;;
72649;SDS011;61467;50.674;4.618;2022-08-01T03:57:52;11.70;;;5.10;;
72649;SDS011;61467;50.674;4.618;2022-08-01T04:00:20;12.93;;;5.32;;
72649;SDS011;61467;50.674;4.618;2022-08-01T04:02:47;12.50;;;4.72;;
72649;SDS011;61467;50.674;4.618;2022-08-01T04:05:15;13.50;;;4.95;;
72649;SDS011;61467;50.674;4.618;2022-08-01T04:07:45;13.93;;;4.75;;
72649;SDS011;61467;50.674;4.618;2022-08-01T04:10:12;15.17;;;5.97;;
72649;SDS011;61467;50.674;4.618;2022-08-01T04:12:39;14.95;;;5.55;;
72649;SDS011;61467;50.674;4.618;2022-08-01T04:15:08;15.68;;;5.65;;
72649;SDS011;61467;50.674;4.618;2022-08-01T04:17:35;15.02;;;5.80;;
72649;SDS011;61467;50.674;4.618;2022-08-01T04:20:01;16.58;;;6.10;;
72649;SDS011;61467;50.674;4.618;2022-08-01T04:22:28;14.57;;;5.13;;
72649;SDS011;61467;50.674;4.618;2022-08-01T04:24:57;12.60;;;5.57;;
72649;SDS011;61467;50.674;4.618;2022-08-01T04:27:27;19.33;;;6.65;;
72649;SDS011;61467;50.674;4.618;2022-08-01T04:29:58;13.05;;;5.53;;
72649;SDS011;61467;50.674;4.618;2022-08-01T04:32:26;16.00;;;6.88;;
72649;SDS011;61467;50.674;4.618;2022-08-01T04:34:56;18.43;;;6.27;;
72649;SDS011;61467;50.674;4.618;2022-08-01T04:37:25;18.23;;;6.90;;
72649;SDS011;61467;50.674;4.618;2022-08-01T04:39:54;13.43;;;6.10;;
72649;SDS011;61467;50.674;4.618;2022-08-01T04:42:22;15.00;;;5.63;;
72649;SDS011;61467;50.674;4.618;2022-08-01T04:44:50;11.82;;;5.88;;
72649;SDS011;61467;50.674;4.618;2022-08-01T04:47:18;12.93;;;4.90;;
72649;SDS011;61467;50.674;4.618;2022-08-01T04:49:46;20.15;;;5.93;;
72649;SDS011;61467;50.674;4.618;2022-08-01T04:52:13;15.88;;;5.57;;
72649;SDS011;61467;50.674;4.618;2022-08-01T04:54:42;15.15;;;5.22;;
72649;SDS011;61467;50.674;4.618;2022-08-01T04:57:11;14.18;;;5.40;;
72649;SDS011;61467;50.674;4.618;2022-08-01T04:59:41;12.37;;;4.93;;
72649;SDS011;61467;50.674;4.618;2022-08-01T05:02:11;14.80;;;5.60;;
72649;SDS011;61467;50.674;4.618;2022-08-01T05:04:39;12.95;;;5.35;;
72649;SDS011;61467;50.674;4.618;2022-08-01T05:07:08;14.75;;;5.45;;
72649;SDS011;61467;50.674;4.618;2022-08-01T05:09:35;16.55;;;5.35;;
72649;SDS011;61467;50.674;4.618;2022-08-01T05:12:03;19.63;;;5.50;;
72649;SDS011;61467;50.674;4.618;2022-08-01T05:14:31;13.82;;;6.20;;
72649;SDS011;61467;50.674;4.618;2022-08-01T05:16:58;12.23;;;5.45;;
72649;SDS011;61467;50.674;4.618;2022-08-01T05:19:28;15.25;;;6.40;;
72649;SDS011;61467;50.674;4.618;2022-08-01T05:21:55;16.17;;;5.78;;
72649;SDS011;61467;50.674;4.618;2022-08-01T05:24:23;12.73;;;5.27;;
72649;SDS011;61467;50.674;4.618;2022-08-01T05:26:50;13.95;;;5.97;;
72649;SDS011;61467;50.674;4.618;2022-08-01T05:29:16;13.30;;;5.60;;
72649;SDS011;61467;50.674;4.618;2022-08-01T05:31:43;12.82;;;5.63;;
72649;SDS011;61467;50.674;4.618;2022-08-01T05:34:10;14.40;;;6.82;;
72649;SDS011;61467;50.674;4.618;2022-08-01T05:36:36;13.93;;;5.60;;
72649;SDS011;61467;50.674;4.618;2022-08-01T05:39:03;15.00;;;6.65;;
72649;SDS011;61467;50.674;4.618;2022-08-01T05:41:31;15.15;;;6.88;;
72649;SDS011;61467;50.674;4.618;2022-08-01T05:43:58;14.98;;;6.38;;
72649;SDS011;61467;50.674;4.618;2022-08-01T05:46:24;15.07;;;6.35;;
72649;SDS011;61467;50.674;4.618;2022-08-01T05:48:51;13.33;;;6.17;;
72649;SDS011;61467;50.674;4.618;2022-08-01T05:51:18;16.15;;;6.32;;
72649;SDS011;61467;50.674;4.618;2022-08-01T05:53:45;13.32;;;5.90;;
72649;SDS011;61467;50.674;4.618;2022-08-01T05:56:12;13.90;;;6.60;;
72649;SDS011;61467;50.674;4.618;2022-08-01T05:58:40;15.93;;;8.02;;
72649;SDS011;61467;50.674;4.618;2022-08-01T06:01:07;14.40;;;6.67;;
72649;SDS011;61467;50.674;4.618;2022-08-01T06:03:33;15.07;;;6.30;;
72649;SDS011;61467;50.674;4.618;2022-08-01T06:06:00;13.90;;;6.25;;
72649;SDS011;61467;50.674;4.618;2022-08-01T06:08:27;14.02;;;5.80;;
72649;SDS011;61467;50.674;4.618;2022-08-01T06:10:54;15.10;;;6.20;;
72649;SDS011;61467;50.674;4.618;2022-08-01T06:13:20;13.00;;;5.30;;
72649;SDS011;61467;50.674;4.618;2022-08-01T06:15:48;11.70;;;5.15;;
72649;SDS011;61467;50.674;4.618;2022-08-01T06:18:15;12.98;;;5.80;;
72649;SDS011;61467;50.674;4.618;2022-08-01T06:20:42;15.18;;;6.10;;
72649;SDS011;61467;50.674;4.618;2022-08-01T06:23:10;12.65;;;5.75;;
72649;SDS011;61467;50.674;4.618;2022-08-01T06:25:36;11.80;;;5.97;;
72649;SDS011;61467;50.674;4.618;2022-08-01T06:28:03;10.88;;;5.07;;
72649;SDS011;61467;50.674;4.618;2022-08-01T06:30:30;12.25;;;5.25;;
72649;SDS011;61467;50.674;4.618;2022-08-01T06:32:58;11.23;;;4.68;;
72649;SDS011;61467;50.674;4.618;2022-08-01T06:35:25;10.40;;;4.82;;
72649;SDS011;61467;50.674;4.618;2022-08-01T06:37:53;11.63;;;4.70;;
72649;SDS011;61467;50.674;4.618;2022-08-01T06:40:20;10.95;;;5.07;;
72649;SDS011;61467;50.674;4.618;2022-08-01T06:42:47;8.13;;;3.90;;
72649;SDS011;61467;50.674;4.618;2022-08-01T06:45:13;8.75;;;4.30;;
72649;SDS011;61467;50.674;4.618;2022-08-01T06:47:41;8.48;;;3.60;;
72649;SDS011;61467;50.674;4.618;2022-08-01T06:50:10;9.93;;;4.37;;
72649;SDS011;61467;50.674;4.618;2022-08-01T06:52:39;10.07;;;5.05;;
72649;SDS011;61467;50.674;4.618;2022-08-01T06:55:06;11.25;;;5.20;;
72649;SDS011;61467;50.674;4.618;2022-08-01T06:57:33;10.10;;;4.93;;
72649;SDS011;61467;50.674;4.618;2022-08-01T07:00:00;14.02;;;5.82;;
72649;SDS011;61467;50.674;4.618;2022-08-01T07:02:29;11.70;;;5.40;;
72649;SDS011;61467;50.674;4.618;2022-08-01T07:04:55;12.80;;;6.35;;
72649;SDS011;61467;50.674;4.618;2022-08-01T07:07:26;14.32;;;5.90;;
72649;SDS011;61467;50.674;4.618;2022-08-01T07:09:53;14.65;;;5.95;;
72649;SDS011;61467;50.674;4.618;2022-08-01T07:12:19;13.50;;;6.03;;
72649;SDS011;61467;50.674;4.618;2022-08-01T07:14:46;12.90;;;5.87;;
72649;SDS011;61467;50.674;4.618;2022-08-01T07:17:13;13.70;;;6.35;;
72649;SDS011;61467;50.674;4.618;2022-08-01T07:19:39;15.50;;;6.53;;
72649;SDS011;61467;50.674;4.618;2022-08-01T07:22:06;15.07;;;6.72;;
72649;SDS011;61467;50.674;4.618;2022-08-01T07:24:34;13.25;;;6.40;;
72649;SDS011;61467;50.674;4.618;2022-08-01T07:27:01;18.73;;;6.20;;
72649;SDS011;61467;50.674;4.618;2022-08-01T07:29:28;15.05;;;6.22;;
72649;SDS011;61467;50.674;4.618;2022-08-01T07:31:55;13.20;;;5.47;;
72649;SDS011;61467;50.674;4.618;2022-08-01T07:34:23;14.88;;;5.45;;
72649;SDS011;61467;50.674;4.618;2022-08-01T07:36:50;12.30;;;5.95;;
72649;SDS011;61467;50.674;4.618;2022-08-01T07:39:17;11.93;;;5.00;;
72649;SDS011;61467;50.674;4.618;2022-08-01T07:41:45;14.55;;;5.95;;
72649;SDS011;61467;50.674;4.618;2022-08-01T07:44:12;16.42;;;6.88;;
72649;SDS011;61467;50.674;4.618;2022-08-01T07:46:39;12.35;;;5.30;;
72649;SDS011;61467;50.674;4.618;2022-08-01T07:49:05;11.85;;;5.53;;
72649;SDS011;61467;50.674;4.618;2022-08-01T07:51:32;15.20;;;5.80;;
72649;SDS011;61467;50.674;4.618;2022-08-01T07:53:59;13.45;;;6.03;;
72649;SDS011;61467;50.674;4.618;2022-08-01T07:56:26;13.60;;;5.53;;
72649;SDS011;61467;50.674;4.618;2022-08-01T07:58:54;14.10;;;6.22;;
72649;SDS011;61467;50.674;4.618;2022-08-01T08:01:20;12.13;;;5.65;;
72649;SDS011;61467;50.674;4.618;2022-08-01T08:03:47;14.90;;;5.60;;
72649;SDS011;61467;50.674;4.618;2022-08-01T08:06:14;13.93;;;5.75;;
72649;SDS011;61467;50.674;4.618;2022-08-01T08:08:40;14.95;;;5.60;;
72649;SDS011;61467;50.674;4.618;2022-08-01T08:11:07;12.48;;;5.72;;
72649;SDS011;61467;50.674;4.618;2022-08-01T08:13:33;13.45;;;6.13;;
72649;SDS011;61467;50.674;4.618;2022-08-01T08:16:01;12.57;;;5.93;;
72649;SDS011;61467;50.674;4.618;2022-08-01T08:18:28;13.57;;;5.95;;
72649;SDS011;61467;50.674;4.618;2022-08-01T08:20:55;12.90;;;5.15;;
72649;SDS011;61467;50.674;4.618;2022-08-01T08:23:22;10.15;;;4.38;;
72649;SDS011;61467;50.674;4.618;2022-08-01T08:26:06;11.55;;;5.20;;
72649;SDS011;61467;50.674;4.618;2022-08-01T08:28:32;11.77;;;5.30;;
72649;SDS011;61467;50.674;4.618;2022-08-01T08:30:59;13.38;;;5.68;;
72649;SDS011;61467;50.674;4.618;2022-08-01T08:33:27;10.05;;;4.38;;
72649;SDS011;61467;50.674;4.618;2022-08-01T08:35:53;12.57;;;4.68;;
72649;SDS011;61467;50.674;4.618;2022-08-01T08:38:20;8.95;;;4.35;;
72649;SDS011;61467;50.674;4.618;2022-08-01T08:40:47;10.27;;;4.70;;
72649;SDS011;61467;50.674;4.618;2022-08-01T08:43:14;8.85;;;3.70;;
72649;SDS011;61467;50.674;4.618;2022-08-01T08:45:42;7.53;;;3.05;;
72649;SDS011;61467;50.674;4.618;2022-08-01T08:48:10;7.97;;;3.38;;
72649;SDS011;61467;50.674;4.618;2022-08-01T08:50:40;7.25;;;3.03;;
72649;SDS011;61467;50.674;4.618;2022-08-01T08:53:07;6.30;;;2.70;;
72649;SDS011;61467;50.674;4.618;2022-08-01T08:55:36;6.72;;;3.30;;
72649;SDS011;61467;50.674;4.618;2022-08-01T08:58:03;7.78;;;2.55;;
72649;SDS011;61467;50.674;4.618;2022-08-01T09:00:31;6.90;;;2.60;;
72649;SDS011;61467;50.674;4.618;2022-08-01T09:02:59;6.10;;;2.72;;
72649;SDS011;61467;50.674;4.618;2022-08-01T09:05:25;6.73;;;2.97;;
72649;SDS011;61467;50.674;4.618;2022-08-01T09:07:54;6.38;;;2.70;;
72649;SDS011;61467;50.674;4.618;2022-08-01T09:10:20;6.40;;;2.67;;
72649;SDS011;61467;50.674;4.618;2022-08-01T09:13:07;7.00;;;2.67;;
72649;SDS011;61467;50.674;4.618;2022-08-01T09:15:37;6.28;;;2.60;;
72649;SDS011;61467;50.674;4.618;2022-08-01T09:18:05;6.07;;;2.60;;
72649;SDS011;61467;50.674;4.618;2022-08-01T09:20:32;5.90;;;2.55;;
72649;SDS011;61467;50.674;4.618;2022-08-01T09:23:02;7.20;;;2.45;;
72649;SDS011;61467;50.674;4.618;2022-08-01T09:25:29;6.22;;;2.28;;
72649;SDS011;61467;50.674;4.618;2022-08-01T09:28:02;5.57;;;2.28;;
72649;SDS011;61467;50.674;4.618;2022-08-01T09:30:36;5.37;;;2.20;;
72649;SDS011;61467;50.674;4.618;2022-08-01T09:33:04;6.25;;;2.38;;
72649;SDS011;61467;50.674;4.618;2022-08-01T09:35:32;5.28;;;1.73;;
72649;SDS011;61467;50.674;4.618;2022-08-01T09:38:12;6.28;;;2.17;;
72649;SDS011;61467;50.674;4.618;2022-08-01T09:40:44;7.15;;;2.30;;
72649;SDS011;61467;50.674;4.618;2022-08-01T09:43:15;5.73;;;2.20;;
72649;SDS011;61467;50.674;4.618;2022-08-01T09:45:41;5.03;;;1.83;;
72649;SDS011;61467;50.674;4.618;2022-08-01T09:48:09;5.45;;;2.28;;
72649;SDS011;61467;50.674;4.618;2022-08-01T09:50:40;6.10;;;2.30;;
72649;SDS011;61467;50.674;4.618;2022-08-01T09:53:07;5.50;;;2.17;;
72649;SDS011;61467;50.674;4.618;2022-08-01T09:55:35;6.87;;;2.33;;
72649;SDS011;61467;50.674;4.618;2022-08-01T09:58:03;5.35;;;2.10;;
72649;SDS011;61467;50.674;4.618;2022-08-01T10:00:30;6.15;;;2.53;;
72649;SDS011;61467;50.674;4.618;2022-08-01T10:02:57;6.00;;;2.10;;
72649;SDS011;61467;50.674;4.618;2022-08-01T10:05:30;6.70;;;1.90;;
72649;SDS011;61467;50.674;4.618;2022-08-01T10:07:58;5.97;;;2.20;;
72649;SDS011;61467;50.674;4.618;2022-08-01T10:10:27;5.45;;;2.38;;
72649;SDS011;61467;50.674;4.618;2022-08-01T10:12:56;6.03;;;2.25;;
72649;SDS011;61467;50.674;4.618;2022-08-01T10:15:23;6.35;;;1.98;;
72649;SDS011;61467;50.674;4.618;2022-08-01T10:17:52;5.70;;;2.47;;
72649;SDS011;61467;50.674;4.618;2022-08-01T10:20:20;5.70;;;2.40;;
72649;SDS011;61467;50.674;4.618;2022-08-01T10:22:51;5.50;;;2.20;;
72649;SDS011;61467;50.674;4.618;2022-08-01T10:25:19;5.88;;;1.83;;
72649;SDS011;61467;50.674;4.618;2022-08-01T10:27:47;7.40;;;2.20;;
72649;SDS011;61467;50.674;4.618;2022-08-01T10:30:16;4.78;;;2.00;;
72649;SDS011;61467;50.674;4.618;2022-08-01T10:32:43;6.60;;;2.90;;
72649;SDS011;61467;50.674;4.618;2022-08-01T10:35:12;5.63;;;2.20;;
72649;SDS011;61467;50.674;4.618;2022-08-01T10:37:42;5.15;;;2.13;;
72649;SDS011;61467;50.674;4.618;2022-08-01T10:40:11;6.20;;;1.90;;
72649;SDS011;61467;50.674;4.618;2022-08-01T10:42:39;6.30;;;2.10;;
72649;SDS011;61467;50.674;4.618;2022-08-01T10:45:06;6.20;;;2.17;;
72649;SDS011;61467;50.674;4.618;2022-08-01T10:47:37;5.88;;;2.00;;
72649;SDS011;61467;50.674;4.618;2022-08-01T10:50:11;4.75;;;1.95;;
72649;SDS011;61467;50.674;4.618;2022-08-01T10:55:47;5.85;;;2.67;;
72649;SDS011;61467;50.674;4.618;2022-08-01T10:58:19;6.30;;;2.23;;
72649;SDS011;61467;50.674;4.618;2022-08-01T11:00:48;5.05;;;2.35;;
72649;SDS011;61467;50.674;4.618;2022-08-01T11:03:16;6.10;;;2.10;;
72649;SDS011;61467;50.674;4.618;2022-08-01T11:06:00;6.07;;;2.28;;
72649;SDS011;61467;50.674;4.618;2022-08-01T11:08:29;5.95;;;2.60;;
72649;SDS011;61467;50.674;4.618;2022-08-01T11:10:59;6.93;;;2.40;;
72649;SDS011;61467;50.674;4.618;2022-08-01T11:16:32;5.32;;;2.30;;
72649;SDS011;61467;50.674;4.618;2022-08-01T11:19:02;6.75;;;2.17;;
72649;SDS011;61467;50.674;4.618;2022-08-01T11:27:22;4.82;;;1.95;;
72649;SDS011;61467;50.674;4.618;2022-08-01T11:32:48;4.78;;;2.00;;
72649;SDS011;61467;50.674;4.618;2022-08-01T11:35:20;4.47;;;1.60;;
72649;SDS011;61467;50.674;4.618;2022-08-01T11:37:48;5.03;;;1.93;;
72649;SDS011;61467;50.674;4.618;2022-08-01T11:40:17;5.88;;;2.17;;
72649;SDS011;61467;50.674;4.618;2022-08-01T11:42:45;5.65;;;1.92;;
72649;SDS011;61467;50.674;4.618;2022-08-01T11:45:12;5.72;;;2.22;;
72649;SDS011;61467;50.674;4.618;2022-08-01T11:47:46;4.22;;;1.75;;
72649;SDS011;61467;50.674;4.618;2022-08-01T11:50:34;5.37;;;1.87;;
72649;SDS011;61467;50.674;4.618;2022-08-01T11:53:02;6.03;;;1.85;;
72649;SDS011;61467;50.674;4.618;2022-08-01T11:55:30;6.18;;;1.90;;
72649;SDS011;61467;50.674;4.618;2022-08-01T11:58:00;4.93;;;2.00;;
72649;SDS011;61467;50.674;4.618;2022-08-01T12:00:27;4.35;;;1.70;;
72649;SDS011;61467;50.674;4.618;2022-08-01T12:02:59;4.10;;;1.20;;
72649;SDS011;61467;50.674;4.618;2022-08-01T12:05:28;6.82;;;1.90;;
72649;SDS011;61467;50.674;4.618;2022-08-01T12:07:57;4.65;;;1.30;;
72649;SDS011;61467;50.674;4.618;2022-08-01T12:10:24;4.05;;;1.55;;
72649;SDS011;61467;50.674;4.618;2022-08-01T12:12:52;3.92;;;1.40;;
72649;SDS011;61467;50.674;4.618;2022-08-01T12:15:21;4.70;;;1.40;;
72649;SDS011;61467;50.674;4.618;2022-08-01T12:17:49;3.67;;;1.55;;
72649;SDS011;61467;50.674;4.618;2022-08-01T12:20:19;6.22;;;1.83;;
72649;SDS011;61467;50.674;4.618;2022-08-01T12:22:47;4.63;;;1.30;;
72649;SDS011;61467;50.674;4.618;2022-08-01T12:25:20;3.90;;;1.40;;
72649;SDS011;61467;50.674;4.618;2022-08-01T12:27:47;3.77;;;1.53;;
72649;SDS011;61467;50.674;4.618;2022-08-01T12:30:14;4.93;;;1.38;;
72649;SDS011;61467;50.674;4.618;2022-08-01T12:32:43;5.25;;;1.55;;
72649;SDS011;61467;50.674;4.618;2022-08-01T12:35:12;5.07;;;1.42;;
72649;SDS011;61467;50.674;4.618;2022-08-01T12:37:41;4.05;;;1.42;;
72649;SDS011;61467;50.674;4.618;2022-08-01T12:40:10;3.73;;;1.17;;
72649;SDS011;61467;50.674;4.618;2022-08-01T12:42:41;3.85;;;1.33;;
72649;SDS011;61467;50.674;4.618;2022-08-01T12:45:09;5.90;;;1.20;;
72649;SDS011;61467;50.674;4.618;2022-08-01T12:47:39;4.05;;;1.20;;
72649;SDS011;61467;50.674;4.618;2022-08-01T12:50:07;4.32;;;1.27;;
72649;SDS011;61467;50.674;4.618;2022-08-01T12:52:37;5.17;;;1.20;;
72649;SDS011;61467;50.674;4.618;2022-08-01T12:55:06;4.75;;;1.10;;
72649;SDS011;61467;50.674;4.618;2022-08-01T12:57:35;4.65;;;1.50;;
72649;SDS011;61467;50.674;4.618;2022-08-01T13:00:12;4.00;;;1.30;;
72649;SDS011;61467;50.674;4.618;2022-08-01T13:02:41;4.20;;;1.30;;
72649;SDS011;61467;50.674;4.618;2022-08-01T13:05:09;8.53;;;1.63;;
72649;SDS011;61467;50.674;4.618;2022-08-01T13:07:38;4.47;;;1.23;;
72649;SDS011;61467;50.674;4.618;2022-08-01T13:10:09;3.92;;;1.52;;
72649;SDS011;61467;50.674;4.618;2022-08-01T13:12:37;4.88;;;1.40;;
72649;SDS011;61467;50.674;4.618;2022-08-01T13:15:18;4.35;;;1.52;;
72649;SDS011;61467;50.674;4.618;2022-08-01T13:17:48;5.07;;;1.30;;
72649;SDS011;61467;50.674;4.618;2022-08-01T13:20:22;4.45;;;1.20;;
72649;SDS011;61467;50.674;4.618;2022-08-01T13:22:50;3.72;;;1.20;;
72649;SDS011;61467;50.674;4.618;2022-08-01T13:25:17;4.50;;;1.27;;
72649;SDS011;61467;50.674;4.618;2022-08-01T13:27:44;5.50;;;1.92;;
72649;SDS011;61467;50.674;4.618;2022-08-01T13:30:12;3.93;;;1.30;;
72649;SDS011;61467;50.674;4.618;2022-08-01T13:32:41;4.60;;;1.20;;
72649;SDS011;61467;50.674;4.618;2022-08-01T13:35:09;4.15;;;1.23;;
72649;SDS011;61467;50.674;4.618;2022-08-01T13:37:38;4.20;;;1.25;;
72649;SDS011;61467;50.674;4.618;2022-08-01T13:40:07;3.88;;;1.45;;
72649;SDS011;61467;50.674;4.618;2022-08-01T13:42:35;4.83;;;1.50;;
72649;SDS011;61467;50.674;4.618;2022-08-01T13:45:02;3.30;;;1.10;;
72649;SDS011;61467;50.674;4.618;2022-08-01T13:47:32;3.78;;;1.13;;
72649;SDS011;61467;50.674;4.618;2022-08-01T13:50:00;3.80;;;1.23;;
72649;SDS011;61467;50.674;4.618;2022-08-01T13:52:27;5.70;;;1.23;;
72649;SDS011;61467;50.674;4.618;2022-08-01T13:54:54;5.07;;;1.30;;
72649;SDS011;61467;50.674;4.618;2022-08-01T13:57:21;4.57;;;1.30;;
72649;SDS011;61467;50.674;4.618;2022-08-01T13:59:48;6.28;;;1.70;;
72649;SDS011;61467;50.674;4.618;2022-08-01T14:02:14;4.25;;;1.30;;
72649;SDS011;61467;50.674;4.618;2022-08-01T14:04:41;5.03;;;1.48;;
72649;SDS011;61467;50.674;4.618;2022-08-01T14:07:09;3.67;;;0.90;;
72649;SDS011;61467;50.674;4.618;2022-08-01T14:09:37;4.05;;;1.27;;
72649;SDS011;61467;50.674;4.618;2022-08-01T14:12:04;4.75;;;1.25;;
72649;SDS011;61467;50.674;4.618;2022-08-01T14:14:31;3.78;;;1.10;;
72649;SDS011;61467;50.674;4.618;2022-08-01T14:16:58;3.85;;;1.20;;
72649;SDS011;61467;50.674;4.618;2022-08-01T14:19:25;5.17;;;1.17;;
72649;SDS011;61467;50.674;4.618;2022-08-01T14:21:51;4.18;;;1.08;;
72649;SDS011;61467;50.674;4.618;2022-08-01T14:24:20;3.45;;;1.00;;
72649;SDS011;61467;50.674;4.618;2022-08-01T14:26:46;3.70;;;0.98;;
72649;SDS011;61467;50.674;4.618;2022-08-01T14:29:13;6.55;;;1.35;;
72649;SDS011;61467;50.674;4.618;2022-08-01T14:31:40;3.60;;;1.00;;
72649;SDS011;61467;50.674;4.618;2022-08-01T14:34:06;3.25;;;1.00;;
72649;SDS011;61467;50.674;4.618;2022-08-01T14:36:33;6.43;;;1.20;;
72649;SDS011;61467;50.674;4.618;2022-08-01T14:39:00;3.97;;;1.00;;
72649;SDS011;61467;50.674;4.618;2022-08-01T14:41:28;3.17;;;1.00;;
72649;SDS011;61467;50.674;4.618;2022-08-01T14:43:55;3.63;;;1.00;;
72649;SDS011;61467;50.674;4.618;2022-08-01T14:46:21;4.40;;;1.02;;
72649;SDS011;61467;50.674;4.618;2022-08-01T14:48:49;5.60;;;1.20;;
72649;SDS011;61467;50.674;4.618;2022-08-01T14:51:16;3.58;;;0.90;;
72649;SDS011;61467;50.674;4.618;2022-08-01T14:53:43;3.97;;;1.10;;
72649;SDS011;61467;50.674;4.618;2022-08-01T14:56:09;4.37;;;1.00;;
72649;SDS011;61467;50.674;4.618;2022-08-01T14:58:37;4.30;;;0.93;;
72649;SDS011;61467;50.674;4.618;2022-08-01T15:01:04;3.72;;;1.00;;
72649;SDS011;61467;50.674;4.618;2022-08-01T15:03:31;3.92;;;1.00;;
72649;SDS011;61467;50.674;4.618;2022-08-01T15:05:57;5.45;;;1.08;;